createdAt,value
2019-02-28T00:00:06.686Z,100553.49
2019-02-28T00:05:14.399Z,100536.02
2019-02-28T00:10:19.818Z,100536.06
2019-02-28T00:15:25.386Z,100516.54
2019-02-28T00:20:31.967Z,100508.27
2019-02-28T00:25:38.584Z,100499.89
2019-02-28T00:30:43.828Z,100476.38
2019-02-28T00:35:49.181Z,100467.63
2019-02-28T00:40:55.665Z,100448.55
2019-02-28T00:46:01.421Z,100422.08
2019-02-28T00:51:06.683Z,100414.42
2019-02-28T00:56:11.932Z,100385.34
2019-02-28T01:01:17.805Z,100381.92
2019-02-28T01:06:23.179Z,100366.82
2019-02-28T01:11:28.427Z,100361.56
2019-02-28T01:16:34.088Z,100337.68
2019-02-28T01:21:39.491Z,100322.31
2019-02-28T01:26:46.773Z,100297.78
2019-02-28T01:31:51.810Z,100266.17
2019-02-28T01:36:57.053Z,100260.45
2019-02-28T01:42:02.573Z,100258.67
2019-02-28T01:47:07.874Z,100247.84
2019-02-28T01:52:13.488Z,100241.61
2019-02-28T01:57:18.904Z,100223.44
2019-02-28T02:02:24.281Z,100218.72
2019-02-28T02:07:33.336Z,100205.70
2019-02-28T02:12:38.658Z,100183.97
2019-02-28T02:17:44.026Z,100164.79
2019-02-28T02:22:49.282Z,100149.48
2019-02-28T02:27:54.501Z,100141.16
2019-02-28T02:32:59.858Z,100127.55
2019-02-28T02:38:05.374Z,100127.64
2019-02-28T02:43:10.521Z,100115.91
2019-02-28T02:48:15.766Z,100089.88
2019-02-28T02:53:20.928Z,100106.58
2019-02-28T02:58:27.990Z,100092.53
2019-02-28T03:03:32.967Z,100092.18
2019-02-28T03:08:38.022Z,100077.16
2019-02-28T03:13:44.190Z,100058.53
2019-02-28T03:18:56.945Z,100052.78
2019-02-28T03:23:56.451Z,100038.39
2019-02-28T03:29:07.558Z,100034.09
2019-02-28T03:34:13.422Z,100020.76
2019-02-28T03:39:17.198Z,100017.28
2019-02-28T03:44:22.599Z,100005.02
2019-02-28T03:49:27.795Z,99992.50
2019-02-28T03:54:33.498Z,99989.47
2019-02-28T03:59:38.779Z,99965.00
2019-02-28T04:04:49.092Z,99953.72
2019-02-28T04:09:51.226Z,99954.16
2019-02-28T04:14:56.618Z,99955.43
2019-02-28T04:20:01.917Z,99957.14
2019-02-28T04:25:10.286Z,99946.73
2019-02-28T04:30:16.257Z,99928.16
2019-02-28T04:35:25.265Z,99944.91
2019-02-28T04:40:29.125Z,99938.30
2019-02-28T04:45:34.584Z,99934.80
2019-02-28T04:50:39.743Z,99932.02
2019-02-28T04:55:45.201Z,99922.80
2019-02-28T05:00:50.314Z,99913.09
2019-02-28T05:05:55.715Z,99905.77
2019-02-28T05:11:01.025Z,99892.63
2019-02-28T05:16:09.382Z,99874.95
2019-02-28T05:21:16.590Z,99885.94
2019-02-28T05:26:23.420Z,99869.83
2019-02-28T05:31:28.057Z,99852.37
2019-02-28T05:36:34.636Z,99846.27
2019-02-28T05:41:40.381Z,99829.83
2019-02-28T05:46:45.536Z,99838.76
2019-02-28T05:51:50.978Z,99827.11
2019-02-28T05:56:56.460Z,99859.68
2019-02-28T06:02:01.973Z,99849.70
2019-02-28T06:07:09.333Z,99861.08
2019-02-28T06:12:14.402Z,99869.53
2019-02-28T06:17:20.910Z,99882.40
2019-02-28T06:22:26.301Z,99906.95
2019-02-28T06:27:40.868Z,99854.69
2019-02-28T06:32:38.689Z,99824.42
2019-02-28T06:37:44.145Z,99818.87
2019-02-28T06:42:49.401Z,99802.80
2019-02-28T06:47:54.858Z,99807.06
2019-02-28T06:53:00.319Z,99847.33
2019-02-28T06:58:05.787Z,99853.83
2019-02-28T07:03:11.183Z,99950.58
2019-02-28T07:08:16.510Z,99927.11
2019-02-28T07:13:21.754Z,99920.35
2019-02-28T07:18:26.906Z,99953.80
2019-02-28T07:23:32.473Z,99921.27
2019-02-28T07:28:37.855Z,99976.19
2019-02-28T07:33:44.586Z,99997.28
2019-02-28T07:38:50.561Z,99985.25
2019-02-28T07:43:55.686Z,99969.80
2019-02-28T07:49:01.606Z,99979.92
2019-02-28T07:54:06.991Z,99976.28
2019-02-28T07:59:12.246Z,99993.26
2019-02-28T08:04:18.514Z,100004.34
2019-02-28T08:09:27.262Z,99996.73
2019-02-28T08:14:32.624Z,100013.53
2019-02-28T08:19:37.973Z,100014.36
2019-02-28T08:24:43.314Z,100016.63
2019-02-28T08:29:48.494Z,100026.47
2019-02-28T08:34:55.493Z,100037.48
2019-02-28T08:40:02.011Z,100038.19
2019-02-28T08:45:13.112Z,100034.34
2019-02-28T08:50:24.053Z,100029.91
2019-02-28T08:55:29.573Z,100031.47
2019-02-28T09:00:35.297Z,100035.89
2019-02-28T09:05:40.549Z,100042.51
2019-02-28T09:10:46.972Z,100039.78
2019-02-28T09:15:53.103Z,100057.84
2019-02-28T09:20:58.461Z,100057.48
2019-02-28T09:26:03.783Z,100067.46
2019-02-28T09:31:09.180Z,100082.02
2019-02-28T09:36:20.220Z,100085.84
2019-02-28T09:41:21.834Z,100077.63
2019-02-28T09:46:27.089Z,100077.11
2019-02-28T09:51:32.851Z,100069.94
2019-02-28T09:56:41.217Z,100075.42
2019-02-28T10:01:45.527Z,100077.87
2019-02-28T10:06:51.612Z,100087.51
2019-02-28T10:11:57.680Z,100101.52
2019-02-28T10:17:03.048Z,100086.55
2019-02-28T10:22:10.114Z,100100.91
2019-02-28T10:27:15.902Z,100092.95
2019-02-28T10:32:21.280Z,100104.33
2019-02-28T10:37:26.848Z,100103.63
2019-02-28T10:42:32.282Z,100104.94
2019-02-28T10:47:37.545Z,100115.95
2019-02-28T10:52:43.007Z,100117.45
2019-02-28T10:57:49.370Z,100121.59
2019-02-28T11:02:57.477Z,100138.80
2019-02-28T11:08:02.928Z,100138.80
2019-02-28T11:13:11.401Z,100131.41
2019-02-28T11:18:16.963Z,100133.63
2019-02-28T11:23:23.462Z,100145.52
2019-02-28T11:28:29.313Z,100141.22
2019-02-28T11:33:36.472Z,100139.63
2019-02-28T11:38:42.056Z,100139.63
2019-02-28T11:43:47.739Z,100150.38
2019-02-28T11:48:54.130Z,100151.58
2019-02-28T11:54:00.549Z,100156.30
2019-02-28T11:59:06.219Z,100166.02
2019-02-28T12:04:11.752Z,100159.56
2019-02-28T12:09:19.231Z,100149.37
2019-02-28T12:14:26.461Z,100145.14
2019-02-28T12:19:32.032Z,100159.66
2019-02-28T12:24:38.518Z,100165.09
2019-02-28T12:29:45.566Z,100173.48
2019-02-28T12:34:50.817Z,100184.05
2019-02-28T12:39:56.143Z,100190.09
2019-02-28T12:45:01.510Z,100181.41
2019-02-28T12:50:09.815Z,100197.70
2019-02-28T12:55:18.543Z,100224.41
2019-02-28T13:00:35.074Z,100215.75
2019-02-28T13:05:40.729Z,100221.42
2019-02-28T13:10:47.317Z,100219.55
2019-02-28T13:15:52.725Z,100233.23
2019-02-28T13:20:58.029Z,100243.42
2019-02-28T13:26:03.399Z,100259.04
2019-02-28T13:31:08.963Z,100251.66
2019-02-28T13:36:14.112Z,100246.77
2019-02-28T13:41:22.129Z,100256.31
2019-02-28T13:46:32.342Z,100259.17
2019-02-28T13:51:40.479Z,100259.17
2019-02-28T13:56:40.985Z,100253.53
2019-02-28T14:01:46.329Z,100245.47
2019-02-28T14:06:52.531Z,100245.47
2019-02-28T14:11:59.033Z,100243.17
2019-02-28T14:17:04.556Z,100256.23
2019-02-28T14:22:11.565Z,100281.64
2019-02-28T14:27:17.927Z,100279.23
2019-02-28T14:32:23.215Z,100277.13
2019-02-28T14:37:28.548Z,100275.98
2019-02-28T14:42:33.908Z,100280.49
2019-02-28T14:47:39.166Z,100287.09
2019-02-28T14:52:45.848Z,100303.39
2019-02-28T14:57:51.417Z,100311.56
2019-02-28T15:02:59.483Z,100315.53
2019-02-28T15:08:04.393Z,100329.20
2019-02-28T15:13:10.063Z,100349.19
2019-02-28T15:18:15.456Z,100353.44
2019-02-28T15:23:20.581Z,100359.61
2019-02-28T15:28:25.875Z,100370.75
2019-02-28T15:33:31.259Z,100379.96
2019-02-28T15:38:36.642Z,100388.16
2019-02-28T15:43:41.766Z,100400.13
2019-02-28T15:48:46.991Z,100398.26
2019-02-28T15:53:52.134Z,100399.37
2019-02-28T15:58:57.629Z,100397.05
2019-02-28T16:04:03.247Z,100382.31
2019-02-28T16:09:11.558Z,100390.89
2019-02-28T16:14:17.235Z,100404.05
2019-02-28T16:19:22.832Z,100408.27
2019-02-28T16:24:28.358Z,100410.70
2019-02-28T16:29:33.564Z,100414.44
2019-02-28T16:34:42.324Z,100423.23
2019-02-28T16:39:49.158Z,100424.91
2019-02-28T16:44:52.979Z,100419.84
2019-02-28T16:49:58.228Z,100431.34
2019-02-28T16:55:03.905Z,100435.41
2019-02-28T17:00:15.986Z,100431.84
2019-02-28T17:05:26.743Z,100430.58
2019-02-28T17:10:33.384Z,100435.19
2019-02-28T17:15:40.235Z,100443.31
2019-02-28T17:20:49.118Z,100434.45
2019-02-28T17:25:56.527Z,100438.88
2019-02-28T17:31:20.930Z,100446.72
2019-02-28T17:36:27.979Z,100441.41
2019-02-28T17:41:33.935Z,100441.44
2019-02-28T17:46:40.343Z,100435.45
2019-02-28T17:51:48.793Z,100441.92
2019-02-28T17:57:12.202Z,100450.49
2019-02-28T18:02:47.765Z,100438.03
2019-02-28T18:08:05.201Z,100430.44
2019-02-28T18:13:16.224Z,100439.67
2019-02-28T18:18:35.686Z,100450.63
2019-02-28T18:24:04.285Z,100447.45
2019-02-28T18:29:33.073Z,100449.88
2019-02-28T18:34:38.477Z,100445.05
2019-02-28T18:39:44.669Z,100445.60
2019-02-28T18:44:50.963Z,100441.13
2019-02-28T18:49:56.477Z,100444.61
2019-02-28T18:55:06.032Z,100441.77
2019-02-28T19:00:13.344Z,100451.92
2019-02-28T19:05:18.804Z,100450.83
2019-02-28T19:10:24.523Z,100441.59
2019-02-28T19:15:31.278Z,100447.94
2019-02-28T19:20:36.717Z,100453.36
2019-02-28T19:25:42.564Z,100459.61
2019-02-28T19:30:48.097Z,100467.17
2019-02-28T19:35:54.641Z,100470.78
2019-02-28T19:41:00.010Z,100470.44
2019-02-28T19:46:05.655Z,100469.59
2019-02-28T19:51:10.879Z,100478.05
2019-02-28T19:56:16.380Z,100476.84
2019-02-28T20:01:21.941Z,100478.66
2019-02-28T20:06:27.301Z,100473.83
2019-02-28T20:11:32.998Z,100483.53
2019-02-28T20:16:38.423Z,100486.20
2019-02-28T20:21:44.273Z,100491.23
2019-02-28T20:26:50.570Z,100487.25
2019-02-28T20:31:56.033Z,100491.45
2019-02-28T20:37:01.401Z,100491.32
2019-02-28T20:42:07.963Z,100498.38
2019-02-28T20:47:13.518Z,100499.87
2019-02-28T20:52:18.768Z,100504.82
2019-02-28T20:57:24.069Z,100513.86
2019-02-28T21:02:29.495Z,100517.21
2019-02-28T21:07:35.391Z,100531.73
2019-02-28T21:12:40.964Z,100532.97
2019-02-28T21:17:46.231Z,100539.88
2019-02-28T21:22:51.665Z,100546.48
2019-02-28T21:27:57.247Z,100545.25
2019-02-28T21:33:02.982Z,100552.40
2019-02-28T21:38:08.340Z,100562.23
2019-02-28T21:43:13.711Z,100555.84
2019-02-28T21:48:19.190Z,100554.39
2019-02-28T21:53:24.422Z,100560.19
2019-02-28T21:58:31.219Z,100557.79
2019-02-28T22:03:36.791Z,100556.86
2019-02-28T22:08:42.154Z,100565.70
2019-02-28T22:13:47.619Z,100563.47
2019-02-28T22:18:52.849Z,100578.02
2019-02-28T22:23:58.132Z,100578.27
2019-02-28T22:29:03.454Z,100576.88
2019-02-28T22:34:13.364Z,100588.77
2019-02-28T22:39:18.697Z,100580.53
2019-02-28T22:44:24.072Z,100592.64
2019-02-28T22:49:29.739Z,100584.67
2019-02-28T22:54:34.996Z,100588.08
2019-02-28T22:59:40.361Z,100584.59
2019-02-28T23:04:46.059Z,100592.10
2019-02-28T23:09:51.496Z,100591.30
2019-02-28T23:14:56.763Z,100594.45
2019-02-28T23:20:02.203Z,100591.61
2019-02-28T23:25:08.775Z,100586.98
2019-02-28T23:30:29.991Z,100589.63
2019-02-28T23:35:35.858Z,100587.60
2019-02-28T23:40:41.444Z,100590.05
2019-02-28T23:45:47.008Z,100581.58
2019-02-28T23:50:52.490Z,100584.74
2019-02-28T23:55:58.236Z,100581.60
